createdAt,value
2022-08-07T00:00:47.569Z,16.30
2022-08-07T00:03:28.483Z,16.20
2022-08-07T00:06:18.195Z,14.60
2022-08-07T00:09:16.675Z,16.10
2022-08-07T00:11:56.152Z,16.30
2022-08-07T00:14:36.833Z,17.70
2022-08-07T00:17:35.915Z,17.50
2022-08-07T00:20:29.701Z,16.40
2022-08-07T00:23:09.849Z,17.10
2022-08-07T00:26:18.639Z,16.20
2022-08-07T00:29:02.315Z,13.30
2022-08-07T00:31:38.147Z,16.50
2022-08-07T00:34:09.659Z,16.10
2022-08-07T00:36:43.659Z,16.00
2022-08-07T00:39:20.854Z,15.80
2022-08-07T00:42:01.795Z,15.90
2022-08-07T00:44:38.335Z,16.20
2022-08-07T00:47:15.938Z,15.80
2022-08-07T00:50:19.443Z,17.50
2022-08-07T00:53:03.237Z,16.20
2022-08-07T00:56:02.289Z,17.20
2022-08-07T00:58:31.551Z,15.70
2022-08-07T01:01:07.963Z,15.60
2022-08-07T01:03:55.894Z,17.60
2022-08-07T01:06:52.289Z,15.60
2022-08-07T01:12:29.106Z,14.00
2022-08-07T01:15:03.853Z,15.50
2022-08-07T01:17:35.352Z,12.80
2022-08-07T01:20:18.516Z,13.70
2022-08-07T01:23:00.777Z,15.60
2022-08-07T01:25:56.153Z,15.70
2022-08-07T01:28:31.306Z,15.90
2022-08-07T01:31:08.515Z,15.30
2022-08-07T01:33:55.461Z,15.10
2022-08-07T01:36:33.863Z,15.30
2022-08-07T01:39:09.679Z,15.30
2022-08-07T01:42:07.147Z,15.40
2022-08-07T01:44:47.947Z,15.50
2022-08-07T01:48:29.351Z,14.30
2022-08-07T01:50:17.062Z,15.30
2022-08-07T01:53:09.152Z,14.70
2022-08-07T01:55:47.479Z,17.90
2022-08-07T01:58:28.842Z,15.50
2022-08-07T02:01:59.479Z,17.70
2022-08-07T02:04:19.449Z,15.50
2022-08-07T02:06:56.732Z,15.10
2022-08-07T02:09:54.735Z,15.10
2022-08-07T02:12:38.394Z,14.80
2022-08-07T02:15:49.826Z,16.00
2022-08-07T02:18:36.552Z,15.50
2022-08-07T02:21:55.200Z,13.20
2022-08-07T02:24:45.857Z,15.10
2022-08-07T02:27:34.206Z,12.70
2022-08-07T02:30:08.735Z,16.50
2022-08-07T02:33:00.451Z,14.90
2022-08-07T02:36:29.913Z,15.20
2022-08-07T02:38:56.987Z,15.40
2022-08-07T02:41:37.181Z,12.40
2022-08-07T02:44:27.488Z,16.20
2022-08-07T02:47:28.240Z,15.00
2022-08-07T02:50:07.988Z,13.10
2022-08-07T02:52:44.220Z,15.10
2022-08-07T02:56:04.170Z,15.70
2022-08-07T02:58:49.625Z,14.80
2022-08-07T03:01:52.009Z,16.30
2022-08-07T03:04:48.609Z,15.20
2022-08-07T03:07:58.992Z,14.30
2022-08-07T03:10:40.629Z,13.30
2022-08-07T03:13:26.709Z,14.90
2022-08-07T03:16:07.385Z,15.60
2022-08-07T03:18:50.918Z,14.40
2022-08-07T03:24:36.571Z,15.20
2022-08-07T03:27:11.550Z,14.50
2022-08-07T03:30:03.767Z,14.50
2022-08-07T03:32:57.119Z,14.60
2022-08-07T03:35:43.815Z,14.60
2022-08-07T03:38:29.370Z,14.20
2022-08-07T03:41:05.313Z,14.80
2022-08-07T03:43:57.222Z,14.50
2022-08-07T03:47:10.863Z,13.80
2022-08-07T03:52:58.021Z,14.80
2022-08-07T03:55:52.783Z,14.50
2022-08-07T03:59:05.321Z,14.30
2022-08-07T04:01:16.536Z,16.60
2022-08-07T04:03:55.346Z,15.00
2022-08-07T04:06:37.050Z,14.60
2022-08-07T04:09:15.349Z,14.10
2022-08-07T04:12:21.370Z,14.60
2022-08-07T04:14:45.911Z,16.20
2022-08-07T04:17:20.929Z,13.80
2022-08-07T04:19:54.260Z,14.00
2022-08-07T04:22:28.933Z,14.00
2022-08-07T04:25:01.110Z,13.90
2022-08-07T04:27:35.604Z,12.30
2022-08-07T04:30:21.650Z,14.20
2022-08-07T04:33:15.826Z,14.20
2022-08-07T04:35:50.476Z,16.10
2022-08-07T04:38:24.820Z,14.30
2022-08-07T04:40:56.883Z,13.80
2022-08-07T04:44:10.151Z,15.50
2022-08-07T04:47:10.270Z,14.20
2022-08-07T04:50:13.480Z,13.90
2022-08-07T04:53:40.236Z,13.70
2022-08-07T04:58:13.924Z,14.30
2022-08-07T05:00:14.235Z,14.10
2022-08-07T05:03:00.084Z,14.00
2022-08-07T05:09:46.206Z,14.40
2022-08-07T05:15:45.501Z,16.00
2022-08-07T05:18:34.663Z,14.30
2022-08-07T05:21:08.082Z,14.50
2022-08-07T05:26:38.200Z,13.80
2022-08-07T05:29:12.309Z,14.30
2022-08-07T05:31:51.096Z,17.00
2022-08-07T05:34:27.728Z,14.60
2022-08-07T05:37:00.588Z,15.20
2022-08-07T05:40:16.841Z,15.40
2022-08-07T05:42:36.802Z,16.00
2022-08-07T05:45:46.036Z,15.10
2022-08-07T05:48:06.104Z,15.80
2022-08-07T05:50:45.207Z,15.20
2022-08-07T05:54:11.925Z,15.40
2022-08-07T05:56:08.259Z,12.90
2022-08-07T05:58:52.423Z,15.70
2022-08-07T06:01:35.673Z,15.30
2022-08-07T06:04:06.834Z,15.50
2022-08-07T06:06:38.837Z,18.30
2022-08-07T06:09:17.000Z,16.10
2022-08-07T06:11:48.152Z,16.30
2022-08-07T06:14:30.210Z,15.30
2022-08-07T06:17:07.282Z,16.70
2022-08-07T06:19:52.070Z,18.60
2022-08-07T06:22:34.431Z,16.40
2022-08-07T06:25:19.151Z,17.10
2022-08-07T06:28:01.495Z,17.20
2022-08-07T06:30:37.439Z,17.40
2022-08-07T06:33:20.644Z,17.90
2022-08-07T06:36:12.201Z,17.50
2022-08-07T06:38:59.475Z,17.60
2022-08-07T06:42:02.903Z,16.00
2022-08-07T06:45:00.529Z,17.80
2022-08-07T06:47:29.368Z,17.90
2022-08-07T06:50:19.031Z,19.80
2022-08-07T06:52:53.086Z,18.00
2022-08-07T06:55:33.997Z,17.00
2022-08-07T06:58:21.617Z,18.90
2022-08-07T07:01:17.133Z,18.80
2022-08-07T07:03:49.373Z,18.40
2022-08-07T07:06:24.000Z,18.70
2022-08-07T07:08:56.881Z,19.00
2022-08-07T07:12:08.643Z,18.80
2022-08-07T07:14:21.779Z,19.10
2022-08-07T07:17:02.574Z,19.40
2022-08-07T07:19:57.442Z,18.90
2022-08-07T07:22:36.930Z,18.10
2022-08-07T07:26:32.362Z,19.00
2022-08-07T07:28:42.518Z,19.50
2022-08-07T07:31:30.474Z,19.60
2022-08-07T07:34:10.807Z,19.50
2022-08-07T07:36:47.815Z,19.50
2022-08-07T07:39:17.636Z,19.80
2022-08-07T07:42:02.181Z,19.50
2022-08-07T07:44:49.561Z,19.90
2022-08-07T07:47:51.851Z,19.80
2022-08-07T07:50:33.522Z,20.00
2022-08-07T07:53:20.324Z,19.80
2022-08-07T07:55:57.720Z,20.00
2022-08-07T07:58:40.632Z,22.10
2022-08-07T08:02:02.086Z,20.10
2022-08-07T08:04:10.317Z,20.50
2022-08-07T08:06:45.152Z,22.70
2022-08-07T08:09:29.320Z,20.50
2022-08-07T08:12:05.190Z,21.30
2022-08-07T08:14:37.049Z,20.60
2022-08-07T08:17:56.181Z,19.20
2022-08-07T08:20:17.365Z,21.40
2022-08-07T08:23:14.222Z,20.90
2022-08-07T08:26:06.934Z,20.80
2022-08-07T08:28:43.309Z,21.00
2022-08-07T08:31:58.349Z,21.00
2022-08-07T08:34:26.815Z,22.60
2022-08-07T08:37:01.550Z,23.40
2022-08-07T08:39:39.350Z,21.20
2022-08-07T08:42:41.278Z,20.90
2022-08-07T08:45:59.299Z,21.40
2022-08-07T08:48:44.316Z,21.40
2022-08-07T08:51:49.285Z,21.50
2022-08-07T08:54:31.650Z,21.50
2022-08-07T08:57:13.904Z,21.70
2022-08-07T08:59:54.426Z,22.10
2022-08-07T09:02:53.992Z,19.60
2022-08-07T09:05:37.360Z,21.90
2022-08-07T09:08:46.739Z,23.20
2022-08-07T09:11:50.510Z,21.80
2022-08-07T09:14:15.232Z,21.80
2022-08-07T09:16:52.996Z,21.90
2022-08-07T09:19:52.829Z,22.10
2022-08-07T09:24:34.976Z,22.30
2022-08-07T09:26:08.580Z,22.20
2022-08-07T09:30:02.249Z,21.70
2022-08-07T09:32:27.162Z,21.30
2022-08-07T09:36:01.041Z,22.20
2022-08-07T09:38:32.046Z,22.60
2022-08-07T09:41:15.687Z,23.50
2022-08-07T09:44:05.439Z,23.00
2022-08-07T09:47:51.687Z,21.80
2022-08-07T09:50:23.035Z,23.40
2022-08-07T09:53:06.412Z,23.50
2022-08-07T09:56:37.379Z,23.70
2022-08-07T09:59:37.123Z,23.70
2022-08-07T10:02:55.277Z,21.40
2022-08-07T10:06:00.895Z,23.80
2022-08-07T10:09:06.854Z,23.70
2022-08-07T10:11:59.831Z,23.70
2022-08-07T10:14:54.971Z,23.70
2022-08-07T10:18:02.495Z,23.60
2022-08-07T10:20:53.470Z,23.70
2022-08-07T10:24:05.724Z,23.90
2022-08-07T10:27:02.481Z,23.70
2022-08-07T10:30:12.269Z,23.70
2022-08-07T10:34:04.856Z,23.80
2022-08-07T10:36:43.306Z,23.80
2022-08-07T10:39:41.423Z,23.90
2022-08-07T10:42:47.106Z,23.90
2022-08-07T10:45:44.671Z,23.90
2022-08-07T10:48:48.945Z,24.00
2022-08-07T10:52:01.653Z,25.30
2022-08-07T10:54:53.475Z,23.50
2022-08-07T10:58:14.189Z,24.20
2022-08-07T11:01:18.325Z,24.20
2022-08-07T11:04:16.686Z,24.20
2022-08-07T11:07:01.776Z,24.40
2022-08-07T11:10:09.890Z,22.20
2022-08-07T11:12:49.052Z,26.40
2022-08-07T11:15:31.960Z,24.50
2022-08-07T11:18:55.755Z,22.50
2022-08-07T11:21:42.838Z,24.80
2022-08-07T11:24:23.021Z,24.70
2022-08-07T11:27:03.629Z,24.80
2022-08-07T11:30:10.046Z,24.60
2022-08-07T11:33:01.612Z,24.60
2022-08-07T11:36:12.669Z,24.30
2022-08-07T11:39:14.676Z,24.70
2022-08-07T11:42:19.215Z,24.90
2022-08-07T11:45:23.757Z,24.90
2022-08-07T11:48:18.237Z,24.90
2022-08-07T11:51:09.702Z,24.90
2022-08-07T11:54:01.136Z,25.10
2022-08-07T11:57:00.364Z,25.10
2022-08-07T12:00:11.640Z,26.10
2022-08-07T12:03:48.939Z,23.30
2022-08-07T12:06:56.317Z,24.60
2022-08-07T12:09:46.153Z,25.50
2022-08-07T12:12:22.331Z,25.70
2022-08-07T12:16:05.064Z,25.40
2022-08-07T12:18:29.647Z,25.50
2022-08-07T12:21:55.543Z,25.60
2022-08-07T12:25:09.038Z,25.70
2022-08-07T12:28:09.420Z,25.60
2022-08-07T12:30:40.971Z,25.60
2022-08-07T12:33:31.053Z,25.60
2022-08-07T12:36:15.726Z,25.60
2022-08-07T12:38:50.035Z,25.30
2022-08-07T12:41:29.193Z,24.40
2022-08-07T12:47:38.048Z,26.00
2022-08-07T12:50:38.526Z,26.00
2022-08-07T12:53:25.234Z,25.90
2022-08-07T12:56:31.698Z,26.00
2022-08-07T12:59:00.969Z,26.10
2022-08-07T13:01:58.695Z,25.90
2022-08-07T13:05:14.904Z,26.00
2022-08-07T13:08:19.245Z,26.10
2022-08-07T13:11:31.344Z,26.20
2022-08-07T13:14:57.848Z,26.20
2022-08-07T13:18:03.699Z,26.20
2022-08-07T13:21:51.112Z,26.20
2022-08-07T13:25:36.002Z,25.40
2022-08-07T13:28:58.229Z,26.40
2022-08-07T13:32:31.172Z,26.60
2022-08-07T13:38:20.120Z,26.40
2022-08-07T13:41:19.426Z,26.30
2022-08-07T13:44:01.196Z,26.70
2022-08-07T13:46:38.820Z,26.10
2022-08-07T13:50:34.376Z,26.10
2022-08-07T13:52:30.467Z,26.30
2022-08-07T13:58:32.078Z,26.30
2022-08-07T14:01:12.629Z,28.60
2022-08-07T14:04:07.510Z,26.20
2022-08-07T14:06:52.784Z,26.10
2022-08-07T14:10:00.641Z,26.20
2022-08-07T14:12:49.295Z,26.10
2022-08-07T14:15:38.609Z,26.20
2022-08-07T14:18:29.875Z,27.70
2022-08-07T14:22:01.457Z,25.90
2022-08-07T14:24:23.911Z,25.90
2022-08-07T14:27:01.152Z,25.50
2022-08-07T14:30:07.745Z,26.40
2022-08-07T14:32:55.802Z,26.40
2022-08-07T14:35:44.642Z,26.40
2022-08-07T14:39:00.611Z,26.30
2022-08-07T14:41:33.863Z,26.60
2022-08-07T14:44:35.359Z,26.40
2022-08-07T14:50:24.518Z,26.10
2022-08-07T14:52:54.632Z,28.20
2022-08-07T14:55:31.771Z,25.70
2022-08-07T14:58:02.258Z,25.70
2022-08-07T15:00:38.894Z,25.80
2022-08-07T15:03:19.439Z,25.70
2022-08-07T15:06:03.897Z,25.70
2022-08-07T15:08:56.154Z,26.00
2022-08-07T15:11:54.322Z,25.90
2022-08-07T15:14:30.660Z,26.00
2022-08-07T15:17:12.887Z,25.90
2022-08-07T15:22:16.470Z,24.40
2022-08-07T15:27:03.578Z,25.80
2022-08-07T15:30:06.580Z,24.60
2022-08-07T15:32:39.526Z,26.00
2022-08-07T15:38:17.567Z,25.90
2022-08-07T15:41:24.144Z,26.00
2022-08-07T15:44:16.326Z,26.00
2022-08-07T15:46:52.723Z,26.00
2022-08-07T15:52:30.341Z,26.20
2022-08-07T15:55:04.459Z,26.20
2022-08-07T15:57:48.514Z,26.20
2022-08-07T16:00:32.174Z,26.10
2022-08-07T16:03:21.596Z,26.10
2022-08-07T16:06:01.975Z,26.00
2022-08-07T16:08:38.505Z,25.70
2022-08-07T16:11:17.508Z,24.40
2022-08-07T16:14:02.942Z,25.70
2022-08-07T16:16:49.873Z,25.20
2022-08-07T16:19:43.077Z,25.20
2022-08-07T16:22:54.956Z,25.20
2022-08-07T16:25:54.534Z,25.10
2022-08-07T16:30:06.925Z,25.40
2022-08-07T16:32:00.651Z,26.30
2022-08-07T16:34:52.861Z,25.30
2022-08-07T16:38:03.832Z,25.10
2022-08-07T16:41:02.575Z,25.10
2022-08-07T16:44:03.908Z,25.00
2022-08-07T16:47:14.421Z,24.90
2022-08-07T16:50:20.184Z,24.70
2022-08-07T16:54:02.038Z,24.80
2022-08-07T16:56:53.754Z,24.50
2022-08-07T16:59:47.007Z,24.50
2022-08-07T17:02:53.449Z,26.30
2022-08-07T17:06:30.446Z,24.50
2022-08-07T17:08:57.451Z,24.30
2022-08-07T17:12:01.363Z,24.60
2022-08-07T17:14:42.595Z,24.40
2022-08-07T17:17:45.973Z,24.20
2022-08-07T17:20:37.795Z,24.20
2022-08-07T17:23:12.923Z,24.20
2022-08-07T17:25:52.034Z,24.10
2022-08-07T17:28:31.507Z,24.10
2022-08-07T17:31:16.327Z,24.30
2022-08-07T17:34:33.628Z,23.90
2022-08-07T17:37:14.296Z,23.80
2022-08-07T17:40:05.419Z,23.70
2022-08-07T17:42:36.286Z,24.20
2022-08-07T17:45:58.331Z,23.60
2022-08-07T17:48:34.316Z,23.50
2022-08-07T17:51:23.111Z,23.40
2022-08-07T17:54:01.803Z,23.30
2022-08-07T17:56:36.177Z,23.30
2022-08-07T17:59:35.987Z,23.20
2022-08-07T18:02:30.372Z,23.00
2022-08-07T18:05:20.979Z,23.90
2022-08-07T18:08:05.987Z,22.90
2022-08-07T18:12:16.287Z,23.10
2022-08-07T18:14:18.092Z,22.70
2022-08-07T18:18:36.519Z,22.80
2022-08-07T18:21:08.440Z,22.60
2022-08-07T18:23:06.090Z,22.30
2022-08-07T18:26:01.543Z,22.30
2022-08-07T18:28:59.123Z,22.30
2022-08-07T18:32:11.045Z,22.20
2022-08-07T18:35:26.210Z,22.10
2022-08-07T18:38:59.590Z,22.10
2022-08-07T18:42:04.335Z,22.30
2022-08-07T18:45:39.841Z,21.90
2022-08-07T18:48:02.676Z,21.80
2022-08-07T18:51:03.867Z,21.70
2022-08-07T18:53:59.033Z,21.70
2022-08-07T18:57:23.358Z,21.60
2022-08-07T19:00:34.168Z,21.60
2022-08-07T19:03:44.081Z,21.50
2022-08-07T19:06:33.997Z,21.40
2022-08-07T19:09:55.934Z,20.50
2022-08-07T19:22:36.197Z,21.00
2022-08-07T19:26:23.164Z,21.30
2022-08-07T19:31:00.065Z,21.10
2022-08-07T19:33:39.591Z,20.90
2022-08-07T19:40:30.576Z,21.10
2022-08-07T19:43:48.737Z,21.90
2022-08-07T19:47:03.226Z,20.70
2022-08-07T19:49:57.209Z,19.20
2022-08-07T19:52:38.788Z,20.60
2022-08-07T19:55:24.161Z,22.50
2022-08-07T19:58:14.234Z,20.60
2022-08-07T20:07:47.945Z,20.20
2022-08-07T20:10:55.282Z,20.10
2022-08-07T20:14:00.951Z,18.90
2022-08-07T20:16:54.315Z,18.70
2022-08-07T20:19:47.565Z,20.90
2022-08-07T20:22:37.408Z,20.00
2022-08-07T20:29:49.129Z,22.40
2022-08-07T20:32:23.091Z,19.80
2022-08-07T20:34:58.535Z,18.90
2022-08-07T20:37:37.277Z,19.60
2022-08-07T20:40:32.000Z,19.70
2022-08-07T20:43:09.467Z,19.90
2022-08-07T20:46:28.387Z,19.70
2022-08-07T20:48:33.883Z,19.50
2022-08-07T20:51:04.148Z,20.20
2022-08-07T20:54:03.984Z,19.80
2022-08-07T20:56:32.310Z,19.40
2022-08-07T20:59:05.175Z,19.40
2022-08-07T21:01:45.151Z,19.80
2022-08-07T21:04:22.593Z,19.30
2022-08-07T21:06:57.348Z,19.30
2022-08-07T21:09:52.121Z,19.50
2022-08-07T21:12:29.131Z,19.20
2022-08-07T21:15:02.981Z,19.20
2022-08-07T21:18:06.189Z,19.20
2022-08-07T21:20:29.485Z,19.10
2022-08-07T21:23:08.340Z,19.30
2022-08-07T21:26:03.233Z,19.10
2022-08-07T21:29:05.327Z,19.10
2022-08-07T21:32:48.026Z,19.00
2022-08-07T21:35:06.874Z,19.00
2022-08-07T21:37:58.367Z,18.90
2022-08-07T21:40:59.172Z,18.80
2022-08-07T21:43:56.363Z,18.80
2022-08-07T21:46:46.249Z,18.70
2022-08-07T21:49:17.807Z,19.10
2022-08-07T21:52:11.669Z,18.80
2022-08-07T21:55:04.454Z,19.10
2022-08-07T21:57:51.727Z,18.90
2022-08-07T22:00:25.318Z,18.70
2022-08-07T22:03:03.567Z,19.40
2022-08-07T22:05:49.816Z,17.10
2022-08-07T22:08:24.632Z,18.60
2022-08-07T22:11:03.836Z,18.80
2022-08-07T22:13:52.212Z,18.70
2022-08-07T22:16:45.058Z,18.60
2022-08-07T22:19:30.020Z,18.40
2022-08-07T22:22:18.141Z,19.60
2022-08-07T22:24:55.287Z,18.50
2022-08-07T22:28:29.349Z,18.70
2022-08-07T22:30:51.951Z,18.50
2022-08-07T22:33:52.433Z,18.40
2022-08-07T22:36:46.461Z,18.10
2022-08-07T22:39:26.150Z,18.50
2022-08-07T22:42:53.800Z,18.40
2022-08-07T22:46:04.705Z,18.10
2022-08-07T22:49:00.834Z,18.00
2022-08-07T22:51:57.836Z,19.10
2022-08-07T22:54:31.796Z,18.00
2022-08-07T22:57:05.507Z,18.20
2022-08-07T22:59:54.342Z,18.10
2022-08-07T23:02:27.324Z,19.10
2022-08-07T23:06:07.065Z,17.70
2022-08-07T23:08:22.594Z,18.00
2022-08-07T23:11:13.319Z,18.10
2022-08-07T23:14:15.672Z,18.30
2022-08-07T23:17:03.435Z,18.30
2022-08-07T23:19:59.939Z,17.60
2022-08-07T23:23:09.657Z,17.70
2022-08-07T23:26:19.689Z,17.60
2022-08-07T23:29:16.815Z,17.60
2022-08-07T23:34:19.878Z,17.60
2022-08-07T23:35:12.825Z,17.80
2022-08-07T23:38:01.472Z,17.40
2022-08-07T23:41:02.866Z,17.50
2022-08-07T23:43:47.131Z,17.40
2022-08-07T23:46:37.476Z,17.40
2022-08-07T23:49:42.436Z,15.30
2022-08-07T23:53:00.047Z,15.80
2022-08-07T23:55:55.768Z,17.40
2022-08-07T23:58:54.762Z,18.00
